Time;durP1;ratioP1;P1;durP2;ratioP2;P2;SDS_P1;SDS_P2;PMS_P1;PMS_P2;Temp;Humidity;BMP_temperature;BMP_pressure;BME280_temperature;BME280_humidity;BME280_pressure;Samples;Min_cycle;Max_cycle;Signal;HPM_P1;HPM_P2
2021/07/08 00:01:02;;;;;;;3.47;2.20;;;20.70;99.90;;;;;;5089831;28;20248;-72
2021/07/08 00:03:28;;;;;;;2.10;2.00;;;20.70;99.90;;;;;;5089691;28;20265;-73
2021/07/08 00:05:55;;;;;;;2.30;2.20;;;20.70;99.90;;;;;;5089717;28;20241;-72
2021/07/08 00:08:22;;;;;;;2.93;2.10;;;20.70;99.90;;;;;;5089137;28;20297;-72
2021/07/08 00:10:52;;;;;;;2.37;2.17;;;20.60;99.90;;;;;;5089703;28;20291;-72
2021/07/08 00:13:23;;;;;;;2.20;2.10;;;20.60;99.90;;;;;;5089584;28;20191;-75
2021/07/08 00:15:49;;;;;;;2.37;2.17;;;20.60;99.90;;;;;;5089460;28;20726;-75
2021/07/08 00:18:16;;;;;;;2.57;2.33;;;20.60;99.90;;;;;;5089574;28;20214;-75
2021/07/08 00:20:46;;;;;;;2.63;2.43;;;20.50;99.90;;;;;;5089581;28;20633;-76
2021/07/08 00:23:13;;;;;;;2.40;2.30;;;20.50;99.90;;;;;;5089188;28;20199;-75
2021/07/08 00:25:40;;;;;;;2.37;2.17;;;20.50;99.90;;;;;;5089184;28;20227;-76
2021/07/08 00:28:08;;;;;;;3.00;2.50;;;20.50;99.90;;;;;;5089419;28;20268;-76
2021/07/08 00:30:37;;;;;;;2.60;2.40;;;20.50;99.90;;;;;;5088297;28;20704;-74
2021/07/08 00:33:03;;;;;;;2.83;2.50;;;20.50;99.90;;;;;;5089288;28;20211;-75
2021/07/08 00:35:30;;;;;;;2.50;2.40;;;20.50;99.90;;;;;;5089105;28;20570;-75
2021/07/08 00:37:57;;;;;;;2.67;2.47;;;20.50;99.90;;;;;;5088862;28;20703;-75
2021/07/08 00:40:23;;;;;;;2.90;2.70;;;20.50;99.90;;;;;;5089040;28;20588;-75
2021/07/08 00:42:51;;;;;;;2.50;2.40;;;20.50;99.90;;;;;;5089094;28;20203;-74
2021/07/08 00:45:20;;;;;;;3.27;2.70;;;20.50;99.90;;;;;;5089025;28;20252;-74
2021/07/08 00:47:48;;;;;;;2.40;2.30;;;20.50;99.90;;;;;;5088708;28;20210;-75
2021/07/08 00:50:18;;;;;;;2.80;2.60;;;20.40;99.90;;;;;;5088801;28;20580;-75
2021/07/08 00:52:47;;;;;;;3.03;2.83;;;20.40;99.90;;;;;;5088815;28;20211;-75
2021/07/08 00:55:14;;;;;;;3.50;2.40;;;20.40;99.90;;;;;;5088794;28;20259;-75
2021/07/08 00:57:51;;;;;;;2.90;2.77;;;20.40;99.90;;;;;;5088876;28;20284;-75
2021/07/08 01:00:19;;;;;;;3.00;2.80;;;20.40;99.90;;;;;;5088082;28;20280;-75
2021/07/08 01:02:45;;;;;;;2.43;2.33;;;20.40;99.90;;;;;;5088506;28;20680;-75
2021/07/08 01:05:16;;;;;;;2.70;2.60;;;20.40;99.90;;;;;;5088721;28;20252;-74
2021/07/08 01:07:44;;;;;;;3.40;2.60;;;20.40;99.90;;;;;;5088255;28;20664;-73
2021/07/08 01:10:12;;;;;;;2.80;2.70;;;20.40;99.90;;;;;;5088839;28;20199;-74
2021/07/08 01:12:39;;;;;;;2.90;2.70;;;20.20;99.90;;;;;;5088291;28;20677;-74
2021/07/08 01:15:06;;;;;;;2.93;2.77;;;20.20;99.90;;;;;;5088338;28;20238;-74
2021/07/08 01:17:33;;;;;;;3.10;2.90;;;20.20;99.90;;;;;;5088234;28;20685;-75
2021/07/08 01:19:59;;;;;;;3.87;2.70;;;20.20;99.90;;;;;;5088609;28;20272;-75
2021/07/08 01:22:27;;;;;;;3.07;2.87;;;20.20;99.90;;;;;;5088055;28;20705;-75
2021/07/08 01:24:55;;;;;;;2.90;2.80;;;20.20;99.90;;;;;;5088571;28;20227;-75
2021/07/08 01:27:22;;;;;;;3.27;3.03;;;20.20;99.90;;;;;;5088653;28;20202;-75
2021/07/08 01:29:48;;;;;;;3.50;3.00;;;20.10;99.90;;;;;;5088721;28;20203;-75
2021/07/08 01:32:15;;;;;;;3.97;2.97;;;20.20;99.90;;;;;;5088296;28;20287;-75
2021/07/08 01:34:42;;;;;;;3.13;2.93;;;20.20;99.90;;;;;;5088592;28;20198;-75
2021/07/08 01:37:09;;;;;;;3.47;2.80;;;20.20;99.90;;;;;;5088421;28;20202;-75
2021/07/08 01:39:36;;;;;;;3.47;3.20;;;20.20;99.90;;;;;;5088493;28;20245;-75
2021/07/08 01:42:04;;;;;;;3.03;2.83;;;20.20;99.90;;;;;;5090078;28;20245;-75
2021/07/08 01:44:30;;;;;;;3.13;2.93;;;20.20;99.90;;;;;;5092513;28;20214;-75
2021/07/08 01:46:57;;;;;;;3.13;2.83;;;20.20;99.90;;;;;;5092490;28;20211;-75
2021/07/08 01:49:24;;;;;;;2.90;2.80;;;20.20;99.90;;;;;;5092409;28;20242;-75
2021/07/08 01:51:51;;;;;;;3.23;3.03;;;20.20;99.90;;;;;;5092308;28;20259;-74
2021/07/08 01:54:19;;;;;;;3.00;2.80;;;20.20;99.90;;;;;;5091994;28;20203;-74
2021/07/08 01:56:47;;;;;;;4.27;3.20;;;20.20;99.90;;;;;;5092287;28;20210;-75
2021/07/08 01:59:14;;;;;;;2.80;2.70;;;20.20;99.90;;;;;;5092084;28;20222;-75
2021/07/08 02:01:41;;;;;;;2.87;2.77;;;20.20;99.90;;;;;;5092029;28;20566;-75
2021/07/08 02:04:09;;;;;;;3.13;3.00;;;20.20;99.90;;;;;;5092082;28;20505;-75
2021/07/08 02:06:36;;;;;;;3.33;3.13;;;20.10;99.90;;;;;;5091976;28;20729;-75
2021/07/08 02:09:04;;;;;;;2.63;2.53;;;20.10;99.90;;;;;;5091685;28;20239;-74
2021/07/08 02:11:30;;;;;;;3.07;2.87;;;20.10;99.90;;;;;;5092171;28;20242;-74
2021/07/08 02:13:58;;;;;;;3.20;3.00;;;20.10;99.90;;;;;;5092084;28;20251;-74
2021/07/08 02:16:25;;;;;;;3.20;3.00;;;20.10;99.90;;;;;;5091790;28;20242;-76
2021/07/08 02:18:52;;;;;;;3.07;2.87;;;20.10;99.90;;;;;;5091602;28;20718;-76
2021/07/08 02:21:20;;;;;;;3.60;3.30;;;20.10;99.90;;;;;;5092007;28;20240;-76
2021/07/08 02:23:47;;;;;;;3.50;3.30;;;20.10;99.90;;;;;;5091703;28;20230;-74
2021/07/08 02:26:13;;;;;;;3.27;3.07;;;20.00;99.90;;;;;;5091759;28;20210;-74
2021/07/08 02:28:41;;;;;;;3.27;3.07;;;20.10;99.90;;;;;;5091628;28;20234;-75
2021/07/08 02:31:10;;;;;;;2.90;2.80;;;20.00;99.90;;;;;;5091589;28;20818;-75
2021/07/08 02:33:38;;;;;;;3.47;3.17;;;20.10;99.90;;;;;;5091103;28;20195;-74
2021/07/08 02:36:06;;;;;;;3.13;2.93;;;19.90;99.90;;;;;;5091223;28;20255;-75
2021/07/08 02:38:33;;;;;;;3.30;3.10;;;19.90;99.90;;;;;;5091161;28;20229;-75
2021/07/08 02:40:59;;;;;;;3.33;3.00;;;19.90;99.90;;;;;;5090745;28;20761;-75
2021/07/08 02:43:26;;;;;;;3.33;3.07;;;19.80;99.90;;;;;;5088886;28;20270;-74
2021/07/08 02:45:53;;;;;;;3.60;3.40;;;19.80;99.90;;;;;;5088438;28;20228;-75
2021/07/08 02:48:22;;;;;;;3.07;2.97;;;19.80;99.90;;;;;;5088640;28;20203;-75
2021/07/08 02:50:51;;;;;;;3.37;3.17;;;19.80;99.90;;;;;;5088240;28;20676;-75
2021/07/08 02:53:20;;;;;;;3.03;2.93;;;19.80;99.90;;;;;;5087748;28;20674;-75
2021/07/08 02:55:48;;;;;;;3.23;3.03;;;19.70;99.90;;;;;;5089007;28;20242;-75
2021/07/08 02:58:14;;;;;;;3.40;3.20;;;19.80;99.90;;;;;;5089073;28;20210;-75
2021/07/08 03:00:41;;;;;;;3.93;3.27;;;19.80;99.90;;;;;;5088905;28;20315;-77
2021/07/08 03:03:08;;;;;;;4.40;3.90;;;19.80;99.90;;;;;;5089096;28;20233;-77
2021/07/08 03:05:36;;;;;;;3.30;3.20;;;19.80;99.90;;;;;;5088781;28;20256;-75
2021/07/08 03:08:05;;;;;;;3.77;3.07;;;19.90;99.90;;;;;;5088920;28;20226;-76
2021/07/08 03:10:32;;;;;;;3.50;3.20;;;19.90;99.90;;;;;;5089325;28;20194;-76
2021/07/08 03:12:59;;;;;;;3.47;3.27;;;19.70;99.90;;;;;;5088774;28;20300;-72
2021/07/08 03:15:26;;;;;;;3.07;2.93;;;19.70;99.90;;;;;;5088235;28;20231;-72
2021/07/08 03:17:54;;;;;;;3.27;3.07;;;19.70;99.90;;;;;;5088294;28;20255;-72
2021/07/08 03:20:23;;;;;;;5.83;3.40;;;19.80;99.90;;;;;;5088014;28;20213;-72
2021/07/08 03:22:52;;;;;;;3.70;3.50;;;19.80;99.90;;;;;;5087469;28;20203;-72
2021/07/08 03:25:20;;;;;;;3.37;3.17;;;19.60;99.90;;;;;;5087272;28;20658;-72
2021/07/08 03:27:47;;;;;;;3.57;3.27;;;19.70;99.90;;;;;;5087729;28;20199;-72
2021/07/08 03:30:18;;;;;;;3.67;3.40;;;19.60;99.90;;;;;;5087184;28;20677;-72
2021/07/08 03:32:45;;;;;;;3.57;3.37;;;19.60;99.90;;;;;;5087221;28;20283;-72
2021/07/08 03:35:13;;;;;;;3.20;3.00;;;19.60;99.90;;;;;;5087334;28;20195;-72
2021/07/08 03:37:39;;;;;;;3.20;2.97;;;19.60;99.90;;;;;;5087282;28;20203;-71
2021/07/08 03:40:11;;;;;;;3.13;2.93;;;19.60;99.90;;;;;;5087361;28;20231;-72
2021/07/08 03:42:37;;;;;;;4.50;3.10;;;19.70;99.90;;;;;;5087414;28;20218;-72
2021/07/08 03:45:05;;;;;;;3.17;2.97;;;19.70;99.90;;;;;;5086550;28;20211;-76
2021/07/08 03:47:31;;;;;;;4.17;3.17;;;19.70;99.90;;;;;;5090020;28;20206;-76
2021/07/08 03:49:58;;;;;;;3.67;3.37;;;19.60;99.90;;;;;;5088351;28;20203;-76
2021/07/08 03:52:25;;;;;;;4.97;3.63;;;19.60;99.90;;;;;;5087370;28;20207;-76
2021/07/08 03:54:52;;;;;;;3.60;3.37;;;19.60;99.90;;;;;;5088827;28;20206;-76
2021/07/08 03:57:21;;;;;;;3.50;3.20;;;19.60;99.90;;;;;;5089928;28;20215;-76
2021/07/08 03:59:47;;;;;;;4.20;3.40;;;19.60;99.90;;;;;;5090144;28;20280;-75
2021/07/08 04:02:14;;;;;;;4.03;3.70;;;19.50;99.90;;;;;;5089944;28;20273;-76
2021/07/08 04:04:41;;;;;;;3.63;3.30;;;19.50;99.90;;;;;;5089673;28;20695;-76
2021/07/08 04:07:09;;;;;;;3.80;3.53;;;19.50;99.90;;;;;;5089511;28;20828;-75
2021/07/08 04:09:35;;;;;;;4.37;3.30;;;19.60;99.90;;;;;;5089237;28;20728;-76
2021/07/08 04:12:02;;;;;;;3.30;3.10;;;19.70;99.90;;;;;;5089533;28;20280;-76
2021/07/08 04:14:30;;;;;;;3.17;3.00;;;19.70;99.90;;;;;;5089104;28;20211;-75
2021/07/08 04:16:57;;;;;;;5.33;3.27;;;19.80;99.90;;;;;;5089668;28;20268;-75
2021/07/08 04:19:24;;;;;;;3.10;2.90;;;19.90;99.90;;;;;;5089355;28;20254;-76
2021/07/08 04:21:50;;;;;;;3.10;2.80;;;19.90;99.90;;;;;;5089556;28;20235;-75
2021/07/08 04:24:17;;;;;;;4.53;3.40;;;20.00;99.90;;;;;;5089424;28;20258;-75
2021/07/08 04:26:43;;;;;;;4.40;3.80;;;20.00;99.90;;;;;;5089362;28;20202;-75
2021/07/08 04:29:10;;;;;;;4.50;3.63;;;20.10;99.90;;;;;;5089489;28;20203;-76
2021/07/08 04:31:38;;;;;;;3.60;3.40;;;20.10;99.90;;;;;;5089290;28;20242;-75
2021/07/08 04:34:05;;;;;;;3.43;3.23;;;20.20;99.90;;;;;;5089081;28;20234;-75
2021/07/08 04:36:32;;;;;;;3.53;3.33;;;20.10;99.90;;;;;;5089117;28;20206;-76
2021/07/08 04:38:59;;;;;;;3.50;3.03;;;20.20;99.90;;;;;;5089263;28;20218;-76
2021/07/08 04:41:26;;;;;;;4.03;2.80;;;20.20;99.90;;;;;;5089005;28;20288;-75
2021/07/08 04:43:52;;;;;;;3.00;2.80;;;20.20;99.90;;;;;;5089102;28;20263;-76
2021/07/08 04:46:19;;;;;;;5.53;2.90;;;20.30;99.90;;;;;;5089176;28;20242;-76
2021/07/08 04:48:47;;;;;;;2.70;2.60;;;20.30;99.90;;;;;;5088707;28;20234;-75
2021/07/08 04:51:13;;;;;;;2.90;2.80;;;20.30;99.90;;;;;;5088968;28;20570;-76
2021/07/08 04:53:40;;;;;;;2.67;2.57;;;20.30;99.90;;;;;;5088825;28;20202;-76
2021/07/08 04:56:07;;;;;;;2.70;2.60;;;20.30;99.90;;;;;;5089030;28;20661;-76
2021/07/08 04:58:33;;;;;;;2.50;2.40;;;20.40;99.90;;;;;;5088775;28;20274;-75
2021/07/08 05:01:00;;;;;;;2.60;2.50;;;20.40;99.90;;;;;;5088690;28;20207;-76
2021/07/08 05:03:26;;;;;;;3.47;2.57;;;20.40;99.90;;;;;;5088450;28;20998;-76
2021/07/08 05:05:54;;;;;;;2.70;2.50;;;20.50;99.90;;;;;;5088488;28;20691;-76
2021/07/08 05:08:21;;;;;;;2.80;2.60;;;20.60;99.90;;;;;;5088554;28;20242;-76
2021/07/08 05:10:47;;;;;;;3.20;2.90;;;20.60;99.90;;;;;;5088728;28;20238;-76
2021/07/08 05:13:14;;;;;;;2.80;2.60;;;20.60;99.90;;;;;;5088791;28;20279;-75
2021/07/08 05:15:41;;;;;;;3.13;2.90;;;20.70;99.90;;;;;;5088652;28;20293;-76
2021/07/08 05:18:07;;;;;;;3.00;2.80;;;20.70;99.90;;;;;;5088467;28;20283;-76
2021/07/08 05:20:34;;;;;;;3.00;2.70;;;20.70;99.90;;;;;;5088720;28;21099;-76
2021/07/08 05:23:04;;;;;;;3.20;3.10;;;20.70;99.90;;;;;;5088524;28;20230;-75
2021/07/08 05:25:31;;;;;;;3.57;2.67;;;20.70;99.90;;;;;;5088751;28;20195;-76
2021/07/08 05:27:58;;;;;;;2.77;2.67;;;20.70;99.90;;;;;;5088194;28;20568;-76
2021/07/08 05:30:25;;;;;;;3.03;2.80;;;20.70;99.90;;;;;;5088625;28;20207;-76
2021/07/08 05:32:51;;;;;;;2.70;2.50;;;20.70;99.90;;;;;;5088623;28;20202;-75
2021/07/08 05:35:18;;;;;;;3.00;2.80;;;20.80;99.90;;;;;;5088509;28;20203;-76
2021/07/08 05:37:45;;;;;;;3.10;2.90;;;20.80;99.90;;;;;;5088359;28;20211;-75
2021/07/08 05:40:13;;;;;;;3.00;2.77;;;20.80;99.90;;;;;;5088099;28;20618;-76
2021/07/08 05:42:39;;;;;;;2.77;2.67;;;20.80;99.90;;;;;;5088332;28;20234;-76
2021/07/08 05:45:07;;;;;;;3.30;3.13;;;20.80;99.90;;;;;;5087009;28;20267;-76
2021/07/08 05:47:34;;;;;;;3.30;3.10;;;20.80;99.90;;;;;;5087835;28;20748;-76
2021/07/08 05:50:00;;;;;;;2.93;2.80;;;20.80;99.90;;;;;;5088389;28;20207;-76
2021/07/08 05:52:28;;;;;;;3.20;2.90;;;20.90;99.90;;;;;;5088184;28;20669;-76
2021/07/08 05:54:55;;;;;;;3.10;2.90;;;20.90;99.90;;;;;;5087807;28;20684;-76
2021/07/08 05:57:22;;;;;;;3.13;2.80;;;20.90;99.90;;;;;;5088163;28;20213;-76
2021/07/08 05:59:49;;;;;;;3.03;2.87;;;20.90;99.90;;;;;;5088174;28;20279;-76
2021/07/08 06:02:16;;;;;;;3.43;3.27;;;21.00;99.90;;;;;;5088283;28;20262;-76
2021/07/08 06:04:44;;;;;;;3.63;3.33;;;21.00;99.90;;;;;;5088030;28;21154;-76
2021/07/08 06:07:10;;;;;;;3.60;3.40;;;21.00;99.90;;;;;;5088306;28;20211;-76
2021/07/08 06:09:37;;;;;;;3.80;3.60;;;21.00;99.90;;;;;;5087497;28;20278;-76
2021/07/08 06:12:04;;;;;;;3.47;3.17;;;21.00;99.90;;;;;;5087774;28;20685;-76
2021/07/08 06:14:32;;;;;;;3.83;3.53;;;21.10;99.90;;;;;;5088099;28;20207;-76
2021/07/08 06:16:59;;;;;;;4.73;3.40;;;21.10;99.90;;;;;;5088209;28;20305;-75
2021/07/08 06:19:25;;;;;;;3.93;3.63;;;21.00;99.90;;;;;;5088089;28;20207;-76
2021/07/08 06:21:52;;;;;;;4.30;3.90;;;21.00;99.90;;;;;;5087579;28;20231;-75
2021/07/08 06:24:19;;;;;;;4.37;4.00;;;21.00;99.90;;;;;;5088115;28;20227;-76
2021/07/08 06:26:46;;;;;;;5.00;3.93;;;21.00;99.90;;;;;;5087855;28;20226;-76
2021/07/08 06:29:12;;;;;;;3.87;3.60;;;21.00;99.90;;;;;;5089804;28;20638;-76
2021/07/08 06:31:40;;;;;;;4.07;3.60;;;21.00;99.90;;;;;;5091541;28;20621;-76
2021/07/08 06:34:07;;;;;;;4.23;3.93;;;21.00;99.90;;;;;;5091679;28;20231;-76
2021/07/08 06:36:34;;;;;;;4.37;4.07;;;21.00;99.90;;;;;;5091292;28;20661;-76
2021/07/08 06:39:01;;;;;;;3.97;3.77;;;21.00;99.90;;;;;;5091706;28;20260;-75
2021/07/08 06:41:27;;;;;;;5.53;3.87;;;21.00;99.90;;;;;;5091647;28;20232;-76
2021/07/08 06:43:54;;;;;;;4.60;4.03;;;21.00;99.90;;;;;;5091659;28;20202;-76
2021/07/08 06:46:27;;;;;;;4.87;3.93;;;21.00;99.90;;;;;;5091613;28;20207;-76
2021/07/08 06:48:55;;;;;;;4.90;4.57;;;21.00;99.90;;;;;;5091229;28;20277;-75
2021/07/08 06:51:22;;;;;;;4.77;4.43;;;21.00;99.90;;;;;;5091538;28;20252;-76
2021/07/08 06:53:48;;;;;;;3.90;3.57;;;21.00;99.90;;;;;;5090994;28;20214;-76
2021/07/08 06:56:15;;;;;;;4.17;3.87;;;21.00;99.90;;;;;;5090852;28;20669;-76
2021/07/08 06:58:41;;;;;;;4.77;4.10;;;21.00;99.90;;;;;;5090972;28;20250;-76
2021/07/08 07:01:09;;;;;;;5.03;3.70;;;21.00;99.90;;;;;;5091268;28;20295;-75
2021/07/08 07:03:35;;;;;;;4.53;3.60;;;21.00;99.90;;;;;;5090796;28;20231;-76
2021/07/08 07:06:04;;;;;;;3.63;3.40;;;21.00;99.90;;;;;;5090963;28;20207;-76
2021/07/08 07:08:31;;;;;;;3.53;3.23;;;21.00;99.90;;;;;;5090318;28;20296;-75
2021/07/08 07:10:58;;;;;;;3.93;3.20;;;21.00;99.90;;;;;;5090747;28;20264;-75
2021/07/08 07:13:24;;;;;;;3.97;3.40;;;21.10;99.90;;;;;;5091031;28;20668;-77
2021/07/08 07:15:51;;;;;;;3.57;3.10;;;21.10;99.90;;;;;;5090491;28;20211;-76
2021/07/08 07:18:18;;;;;;;3.50;3.20;;;21.10;99.90;;;;;;5090733;28;20202;-76
2021/07/08 07:20:44;;;;;;;3.37;3.17;;;21.10;99.90;;;;;;5090162;28;20737;-76
2021/07/08 07:23:12;;;;;;;5.70;3.50;;;21.10;99.90;;;;;;5090437;28;20249;-76
2021/07/08 07:25:41;;;;;;;3.93;3.30;;;21.10;99.90;;;;;;5090641;28;20236;-75
2021/07/08 07:28:09;;;;;;;4.27;3.13;;;21.10;99.90;;;;;;5090566;28;20203;-75
2021/07/08 07:30:36;;;;;;;3.10;2.90;;;21.20;99.90;;;;;;5090442;28;20207;-76
2021/07/08 07:33:03;;;;;;;5.07;3.23;;;21.20;99.90;;;;;;5090278;28;20553;-76
2021/07/08 07:35:30;;;;;;;3.07;2.87;;;21.20;99.90;;;;;;5090055;28;20625;-76
2021/07/08 07:37:57;;;;;;;3.47;2.97;;;21.30;99.90;;;;;;5090169;28;20203;-76
2021/07/08 07:40:26;;;;;;;3.30;3.00;;;21.30;99.90;;;;;;5089458;28;20203;-76
2021/07/08 07:42:53;;;;;;;3.30;3.10;;;21.30;99.90;;;;;;5089967;28;20645;-76
2021/07/08 07:45:19;;;;;;;4.27;3.00;;;21.40;99.90;;;;;;5090099;28;20622;-75
2021/07/08 07:47:51;;;;;;;4.20;3.00;;;21.40;99.90;;;;;;5090058;28;20206;-76
2021/07/08 07:50:18;;;;;;;3.17;2.97;;;21.40;99.90;;;;;;5090147;28;20191;-76
2021/07/08 07:52:45;;;;;;;3.20;2.73;;;21.40;99.90;;;;;;5089632;28;20661;-76
2021/07/08 07:55:12;;;;;;;3.23;2.70;;;21.40;99.90;;;;;;5089970;28;20206;-76
2021/07/08 07:57:41;;;;;;;5.43;3.17;;;21.40;99.90;;;;;;5089886;28;20297;-76
2021/07/08 08:00:08;;;;;;;2.70;2.50;;;21.40;99.90;;;;;;5089678;28;20658;-76
2021/07/08 08:02:35;;;;;;;2.87;2.67;;;21.40;99.90;;;;;;5089311;28;20692;-76
2021/07/08 08:05:20;;;;;;;3.67;2.80;;;21.40;99.90;;;;;;5089616;28;20203;-76
2021/07/08 08:10:30;;;;;;;4.17;2.70;;;21.40;99.90;;;;;;5089463;28;20240;-76
2021/07/08 08:12:58;;;;;;;3.87;2.90;;;21.40;99.90;;;;;;5089098;28;20631;-75
2021/07/08 08:15:25;;;;;;;2.50;2.40;;;21.40;99.90;;;;;;5089739;28;20202;-76
2021/07/08 08:17:52;;;;;;;3.37;2.80;;;21.40;99.90;;;;;;5089639;28;20619;-76
2021/07/08 08:20:19;;;;;;;3.17;2.80;;;21.40;99.90;;;;;;5089374;28;20786;-76
2021/07/08 08:22:45;;;;;;;2.90;2.70;;;21.50;99.90;;;;;;5089278;28;20258;-76
2021/07/08 08:25:13;;;;;;;2.93;2.47;;;21.50;99.90;;;;;;5089397;28;20722;-76
2021/07/08 08:27:40;;;;;;;3.93;2.70;;;21.40;99.90;;;;;;5089400;28;20299;-76
2021/07/08 08:30:12;;;;;;;3.13;2.80;;;21.40;99.90;;;;;;5089352;28;20206;-76
2021/07/08 08:32:39;;;;;;;3.10;2.80;;;21.40;99.90;;;;;;5088834;28;20217;-76
2021/07/08 08:35:06;;;;;;;4.43;2.90;;;21.40;99.90;;;;;;5089513;28;20207;-76
2021/07/08 08:37:33;;;;;;;4.47;2.60;;;21.40;99.90;;;;;;5088914;28;20206;-76
2021/07/08 08:39:59;;;;;;;2.60;2.50;;;21.40;99.90;;;;;;5088985;28;20203;-76
2021/07/08 08:42:27;;;;;;;3.43;2.37;;;21.30;99.90;;;;;;5089017;28;20227;-75
2021/07/08 08:44:54;;;;;;;3.90;2.83;;;21.30;99.90;;;;;;5088872;28;20211;-76
2021/07/08 08:47:23;;;;;;;2.43;2.33;;;21.30;99.90;;;;;;5089054;28;20199;-75
2021/07/08 08:49:53;;;;;;;3.37;2.30;;;21.40;99.90;;;;;;5088996;28;20234;-76
2021/07/08 08:52:20;;;;;;;2.40;2.30;;;21.30;99.90;;;;;;5088383;28;20248;-76
2021/07/08 08:54:47;;;;;;;5.80;2.47;;;21.30;99.90;;;;;;5088735;28;20230;-75
2021/07/08 08:57:14;;;;;;;2.80;2.60;;;21.30;99.90;;;;;;5088892;28;20206;-75
2021/07/08 08:59:40;;;;;;;2.43;2.23;;;21.30;99.90;;;;;;5088760;28;20231;-76
2021/07/08 09:02:11;;;;;;;3.43;2.70;;;21.40;99.90;;;;;;5088583;28;20738;-76
2021/07/08 09:04:40;;;;;;;3.87;2.53;;;21.30;99.90;;;;;;5088615;28;20203;-75
2021/07/08 09:07:26;;;;;;;2.80;2.50;;;21.30;99.90;;;;;;5088772;28;20206;-76
2021/07/08 09:09:54;;;;;;;2.93;2.70;;;21.30;99.90;;;;;;5088247;28;20269;-75
2021/07/08 09:12:24;;;;;;;2.80;2.60;;;21.30;99.90;;;;;;5088382;28;20735;-76
2021/07/08 09:14:51;;;;;;;2.80;2.20;;;21.40;99.90;;;;;;5088598;28;20207;-76
2021/07/08 09:17:19;;;;;;;3.90;2.50;;;21.40;99.90;;;;;;5088765;28;20210;-76
2021/07/08 09:19:49;;;;;;;4.57;2.60;;;21.40;99.90;;;;;;5088960;28;20611;-75
2021/07/08 09:22:30;;;;;;;4.27;2.53;;;21.50;99.90;;;;;;5088976;28;20210;-75
2021/07/08 09:24:57;;;;;;;2.33;2.13;;;21.50;99.90;;;;;;5086576;28;20275;-76
2021/07/08 09:27:27;;;;;;;2.42;2.30;;;21.50;99.90;;;;;;5088567;28;20298;-75
2021/07/08 09:29:54;;;;;;;2.47;2.27;;;21.50;99.90;;;;;;5088184;28;20214;-76
2021/07/08 09:32:23;;;;;;;4.50;2.60;;;21.50;99.90;;;;;;5088507;28;20464;-76
2021/07/08 09:34:52;;;;;;;2.40;2.20;;;21.50;99.90;;;;;;5088188;28;20207;-75
2021/07/08 09:37:21;;;;;;;5.40;2.50;;;21.50;99.90;;;;;;5088306;28;20202;-76
2021/07/08 09:39:49;;;;;;;2.50;2.30;;;21.50;99.90;;;;;;5088176;28;20215;-76
2021/07/08 09:42:18;;;;;;;3.43;2.80;;;21.50;99.90;;;;;;5088342;28;20202;-76
2021/07/08 09:44:45;;;;;;;2.50;2.40;;;21.60;99.90;;;;;;5088259;28;20265;-75
2021/07/08 09:47:23;;;;;;;2.50;2.30;;;21.50;99.90;;;;;;5088430;28;20230;-76
2021/07/08 09:49:51;;;;;;;2.40;2.17;;;21.60;99.90;;;;;;5088137;28;20214;-76
2021/07/08 09:52:18;;;;;;;2.90;2.33;;;21.60;99.90;;;;;;5087816;28;20252;-76
2021/07/08 09:55:12;;;;;;;3.60;2.50;;;21.70;99.90;;;;;;5088247;28;20246;-75
2021/07/08 09:57:41;;;;;;;3.27;2.20;;;21.70;99.90;;;;;;5087932;28;20638;-76
2021/07/08 10:00:36;;;;;;;2.20;2.00;;;21.80;99.90;;;;;;5087936;28;20576;-76
2021/07/08 10:03:03;;;;;;;3.63;2.20;;;21.80;99.90;;;;;;5089870;28;20219;-76
2021/07/08 10:05:34;;;;;;;2.40;2.10;;;21.90;99.90;;;;;;5091840;28;20202;-76
2021/07/08 10:08:01;;;;;;;2.23;2.03;;;21.90;99.90;;;;;;5091785;28;20326;-75
2021/07/08 10:10:28;;;;;;;5.00;2.20;;;21.90;99.90;;;;;;5092095;28;20273;-75
2021/07/08 10:12:56;;;;;;;2.20;2.10;;;21.90;99.90;;;;;;5091931;28;20289;-76
2021/07/08 10:15:23;;;;;;;2.20;1.98;;;22.00;99.90;;;;;;5091848;28;20214;-76
2021/07/08 10:17:49;;;;;;;2.28;1.88;;;21.90;99.90;;;;;;5091714;28;20214;-76
2021/07/08 10:20:17;;;;;;;2.00;1.88;;;21.90;99.90;;;;;;5091866;28;20253;-76
2021/07/08 10:22:45;;;;;;;4.75;2.13;;;21.90;99.90;;;;;;5091115;28;20233;-75
2021/07/08 10:25:13;;;;;;;3.25;2.08;;;21.90;99.90;;;;;;5091761;28;20210;-76
2021/07/08 10:27:41;;;;;;;4.43;2.00;;;21.90;99.90;;;;;;5091659;28;20569;-76
2021/07/08 10:30:09;;;;;;;3.03;2.10;;;21.80;99.90;;;;;;5091902;28;20732;-76
2021/07/08 10:32:37;;;;;;;2.10;1.90;;;21.80;99.90;;;;;;5091478;28;20203;-76
2021/07/08 10:35:04;;;;;;;3.92;2.42;;;21.80;99.90;;;;;;5090904;28;20729;-76
2021/07/08 10:37:33;;;;;;;3.47;2.10;;;21.70;99.90;;;;;;5091581;28;20419;-76
2021/07/08 10:40:02;;;;;;;4.22;2.15;;;21.70;99.90;;;;;;5091496;28;20199;-75
2021/07/08 10:42:42;;;;;;;2.93;1.93;;;21.70;99.90;;;;;;5091442;28;20276;-76
2021/07/08 10:45:31;;;;;;;2.47;1.93;;;21.70;99.90;;;;;;5091417;28;21002;-76
2021/07/08 10:48:11;;;;;;;4.05;1.98;;;21.80;99.90;;;;;;5090899;28;20210;-76
2021/07/08 10:50:40;;;;;;;4.32;2.10;;;21.80;99.90;;;;;;5091431;28;20555;-76
2021/07/08 10:53:19;;;;;;;5.27;2.30;;;21.80;99.90;;;;;;5091273;28;20217;-75
2021/07/08 10:55:48;;;;;;;2.25;2.00;;;21.80;99.90;;;;;;5091096;28;20202;-76
2021/07/08 10:58:51;;;;;;;3.37;2.17;;;21.80;99.90;;;;;;5091112;28;20222;-76
2021/07/08 11:01:51;;;;;;;2.30;2.20;;;21.90;99.90;;;;;;5089124;28;20722;-76
2021/07/08 11:04:46;;;;;;;2.30;2.20;;;21.90;99.90;;;;;;5047911;28;20229;-76
2021/07/08 11:07:15;;;;;;;1.98;1.88;;;21.90;99.90;;;;;;5048137;28;20228;-76
2021/07/08 11:09:55;;;;;;;2.87;2.30;;;21.90;99.90;;;;;;5075800;28;20226;-76
2021/07/08 11:12:32;;;;;;;2.80;2.38;;;21.90;99.90;;;;;;5090968;28;20198;-76
2021/07/08 11:14:59;;;;;;;2.53;2.43;;;21.90;99.90;;;;;;5090015;28;20199;-76
2021/07/08 11:17:26;;;;;;;2.38;2.20;;;22.00;99.90;;;;;;5090638;28;20760;-76
2021/07/08 11:19:55;;;;;;;2.20;2.10;;;22.00;99.90;;;;;;5090629;28;20206;-76
2021/07/08 11:22:37;;;;;;;2.50;2.30;;;22.00;99.90;;;;;;5090612;28;20203;-76
2021/07/08 11:25:06;;;;;;;3.70;2.00;;;22.10;99.90;;;;;;5090228;28;20234;-76
2021/07/08 11:27:39;;;;;;;2.40;2.20;;;22.10;99.90;;;;;;5090540;28;20210;-76
2021/07/08 11:30:28;;;;;;;2.10;2.00;;;22.10;99.90;;;;;;5090602;28;20281;-76
2021/07/08 11:32:59;;;;;;;2.10;2.00;;;22.00;99.90;;;;;;5090232;28;20195;-76
2021/07/08 11:35:29;;;;;;;5.15;2.30;;;22.00;99.90;;;;;;5090090;28;20596;-75
2021/07/08 11:37:59;;;;;;;3.33;2.33;;;22.00;99.90;;;;;;5090278;28;20199;-76
2021/07/08 11:40:27;;;;;;;4.40;2.30;;;22.00;99.90;;;;;;5090321;28;20305;-75
2021/07/08 11:42:55;;;;;;;2.83;2.63;;;22.00;99.90;;;;;;5090283;28;20233;-75
2021/07/08 11:45:24;;;;;;;2.90;2.70;;;22.00;99.90;;;;;;5090269;28;20311;-75
2021/07/08 11:47:53;;;;;;;2.47;2.27;;;22.00;99.90;;;;;;5090320;28;20202;-76
2021/07/08 11:50:21;;;;;;;3.10;2.80;;;22.00;99.90;;;;;;5090276;28;20248;-75
2021/07/08 11:52:49;;;;;;;3.07;2.60;;;22.00;99.90;;;;;;5090288;28;21166;-76
2021/07/08 11:55:18;;;;;;;2.97;2.40;;;21.90;99.90;;;;;;5090135;28;20344;-76
2021/07/08 11:57:52;;;;;;;2.83;2.60;;;21.90;99.90;;;;;;5089954;28;20272;-76
2021/07/08 12:00:32;;;;;;;2.60;2.40;;;21.90;99.90;;;;;;5089747;28;20612;-76
2021/07/08 12:02:59;;;;;;;2.50;2.30;;;21.90;99.90;;;;;;5089644;28;20726;-75
2021/07/08 12:05:26;;;;;;;3.20;2.20;;;21.80;99.90;;;;;;5089506;28;20699;-76
2021/07/08 12:07:56;;;;;;;4.15;2.50;;;21.80;99.90;;;;;;5089236;28;20669;-75
2021/07/08 12:10:26;;;;;;;2.65;2.45;;;21.80;99.90;;;;;;5089735;28;20240;-76
2021/07/08 12:12:55;;;;;;;2.72;2.40;;;21.80;99.90;;;;;;5089530;28;20202;-75
2021/07/08 12:15:23;;;;;;;4.37;2.60;;;21.80;99.90;;;;;;5089915;28;20207;-76
2021/07/08 12:17:53;;;;;;;3.00;2.67;;;21.90;99.90;;;;;;5089313;28;20202;-75
2021/07/08 12:20:21;;;;;;;3.33;2.70;;;21.80;99.90;;;;;;5089738;28;20195;-76
2021/07/08 12:23:00;;;;;;;3.73;2.90;;;21.70;99.90;;;;;;5089249;28;20235;-76
2021/07/08 12:25:27;;;;;;;4.63;2.93;;;21.60;99.90;;;;;;5088993;28;20268;-76
2021/07/08 12:27:56;;;;;;;3.37;3.07;;;21.60;99.90;;;;;;5088762;28;20198;-75
2021/07/08 12:30:24;;;;;;;3.10;2.80;;;21.50;99.90;;;;;;5089738;28;20218;-75
2021/07/08 12:33:06;;;;;;;2.77;2.57;;;21.60;99.90;;;;;;5089377;28;20211;-76
2021/07/08 12:35:41;;;;;;;5.63;2.80;;;21.50;99.90;;;;;;5089515;28;20268;-76
2021/07/08 12:38:08;;;;;;;3.23;2.93;;;21.60;99.90;;;;;;5089274;28;20229;-75
2021/07/08 12:40:35;;;;;;;5.00;2.97;;;21.50;99.90;;;;;;5089365;28;20222;-76
2021/07/08 12:43:07;;;;;;;8.23;3.10;;;21.50;99.90;;;;;;5089014;28;20602;-76
2021/07/08 12:45:35;;;;;;;3.20;2.97;;;21.50;99.90;;;;;;5089198;28;20222;-75
2021/07/08 12:48:03;;;;;;;4.78;3.72;;;21.50;99.90;;;;;;5088412;28;20575;-76
2021/07/08 12:50:36;;;;;;;3.30;3.08;;;21.50;99.90;;;;;;5079218;28;20207;-77
2021/07/08 12:53:05;;;;;;;3.53;3.33;;;21.60;99.90;;;;;;5084296;28;20228;-77
2021/07/08 12:55:42;;;;;;;5.20;3.67;;;21.60;99.90;;;;;;5086087;28;20826;-76
2021/07/08 12:58:12;;;;;;;3.50;3.17;;;21.60;99.90;;;;;;5086174;28;20581;-76